Time;durP1;ratioP1;P1;durP2;ratioP2;P2;SDS_P1;SDS_P2;PMS_P1;PMS_P2;Temp;Humidity;BMP_temperature;BMP_pressure;BME280_temperature;BME280_humidity;BME280_pressure;Samples;Min_cycle;Max_cycle;Signal;HPM_P1;HPM_P2
2021/03/31 00:02:23;;;;;;;28.08;20.30;;;;;;;15.24;52.58;101604.88;5056969;28;20036;-68
2021/03/31 00:04:49;;;;;;;29.55;21.00;;;;;;;15.24;52.46;101599.63;5058936;28;20072;-69
2021/03/31 00:07:16;;;;;;;35.33;20.80;;;;;;;15.10;52.57;101603.75;5045345;28;20046;-68
2021/03/31 00:09:42;;;;;;;24.08;20.60;;;;;;;15.24;52.23;101602.25;5058774;28;20045;-68
2021/03/31 00:12:09;;;;;;;25.83;22.35;;;;;;;15.02;53.03;101605.91;5060646;28;20102;-67
2021/03/31 00:14:36;;;;;;;22.92;18.38;;;;;;;14.95;52.95;101604.47;5063343;28;20106;-68
2021/03/31 00:17:03;;;;;;;24.00;19.65;;;;;;;15.01;52.56;101603.31;5063093;28;20032;-67
2021/03/31 00:19:29;;;;;;;25.48;19.55;;;;;;;14.81;53.38;101599.03;5064222;28;20049;-68
2021/03/31 00:21:56;;;;;;;25.58;19.38;;;;;;;14.96;53.00;101598.28;5063750;28;20124;-68
2021/03/31 00:24:22;;;;;;;24.50;18.35;;;;;;;14.81;53.14;101588.53;5067124;28;20044;-69
2021/03/31 00:26:49;;;;;;;26.80;18.67;;;;;;;14.81;52.92;101586.75;5062903;28;20113;-68
2021/03/31 00:29:15;;;;;;;27.17;19.48;;;;;;;14.78;52.99;101589.50;5066369;28;20083;-69
2021/03/31 00:31:42;;;;;;;30.35;20.02;;;;;;;14.85;53.01;101580.41;5062555;28;20116;-69
2021/03/31 00:34:08;;;;;;;30.00;18.27;;;;;;;14.78;53.00;101580.78;5061892;28;20041;-67
2021/03/31 00:36:34;;;;;;;25.50;17.45;;;;;;;14.72;53.30;101575.81;5065294;28;20184;-69
2021/03/31 00:39:03;;;;;;;26.98;18.40;;;;;;;14.64;53.72;101570.91;5065370;28;20132;-69
2021/03/31 00:41:30;;;;;;;23.17;18.58;;;;;;;14.70;53.38;101564.53;5067852;28;20147;-69
2021/03/31 00:43:56;;;;;;;22.30;17.90;;;;;;;14.64;53.34;101563.88;5062259;28;20049;-69
2021/03/31 00:46:23;;;;;;;23.00;16.95;;;;;;;14.76;53.09;101564.25;5058486;22;20516;-66
2021/03/31 00:48:49;;;;;;;36.58;18.13;;;;;;;14.70;53.04;101560.16;5032389;28;20095;-66
2021/03/31 00:51:16;;;;;;;23.80;16.85;;;;;;;14.70;53.35;101560.16;5030732;28;20629;-67
2021/03/31 00:53:43;;;;;;;23.15;17.58;;;;;;;14.65;53.47;101554.25;5015670;28;22888;-66
2021/03/31 00:56:11;;;;;;;22.60;17.35;;;;;;;14.47;53.97;101555.94;5034485;28;20049;-69
2021/03/31 00:58:38;;;;;;;21.75;17.70;;;;;;;14.64;53.50;101558.63;5032228;28;20080;-65
2021/03/31 01:01:06;;;;;;;21.17;16.00;;;;;;;14.68;53.19;101561.97;5031013;28;20125;-66
2021/03/31 01:03:33;;;;;;;20.27;16.58;;;;;;;14.58;53.69;101552.81;5029462;28;20049;-66
2021/03/31 01:05:59;;;;;;;19.90;16.13;;;;;;;14.66;52.97;101566.47;5031696;28;20060;-65
2021/03/31 01:08:26;;;;;;;24.20;16.88;;;;;;;14.61;53.09;101558.78;5032061;28;20549;-65
2021/03/31 01:10:57;;;;;;;24.77;16.40;;;;;;;14.55;53.45;101550.34;5033270;28;20041;-66
2021/03/31 01:13:47;;;;;;;21.75;15.95;;;;;;;14.62;53.02;101557.88;5034727;28;20060;-65
2021/03/31 01:16:43;;;;;;;19.90;15.50;;;;;;;14.61;53.06;101547.44;5033638;28;20124;-65
2021/03/31 01:19:18;;;;;;;24.65;17.60;;;;;;;14.57;53.37;101546.72;5030999;28;20069;-65
2021/03/31 01:21:47;;;;;;;22.20;16.80;;;;;;;14.55;52.97;101545.09;5031553;28;20041;-66
2021/03/31 01:24:26;;;;;;;29.08;17.13;;;;;;;14.65;52.80;101543.75;5027879;28;20060;-66
2021/03/31 01:26:58;;;;;;;21.40;17.77;;;;;;;14.47;53.46;101540.19;5031004;28;20045;-66
2021/03/31 01:29:46;;;;;;;18.25;14.98;;;;;;;14.41;53.53;101540.44;5034385;28;20071;-66
2021/03/31 01:32:24;;;;;;;19.63;15.30;;;;;;;14.47;53.18;101545.44;5028833;28;20045;-66
2021/03/31 01:34:54;;;;;;;21.00;16.10;;;;;;;14.43;53.39;101538.59;5029484;28;20111;-67
2021/03/31 01:37:29;;;;;;;23.70;16.33;;;;;;;14.40;53.49;101534.34;5032286;28;20125;-67
2021/03/31 01:39:56;;;;;;;19.73;14.68;;;;;;;14.33;53.59;101535.56;5027748;28;20037;-67
2021/03/31 01:42:26;;;;;;;18.98;14.43;;;;;;;14.39;53.42;101537.06;5025324;28;20887;-66
2021/03/31 01:44:57;;;;;;;18.02;14.82;;;;;;;14.35;53.60;101538.94;5023620;28;20045;-66
2021/03/31 01:47:25;;;;;;;19.15;15.32;;;;;;;14.45;53.26;101534.16;5024318;28;20056;-66
2021/03/31 01:49:53;;;;;;;20.70;14.02;;;;;;;14.38;53.35;101535.31;5008848;28;20392;-65
2021/03/31 01:52:21;;;;;;;17.88;15.00;;;;;;;14.26;53.91;101533.25;5028155;28;20045;-66
2021/03/31 01:54:49;;;;;;;22.83;15.05;;;;;;;14.23;53.59;101531.63;5024745;28;20045;-66
2021/03/31 01:57:16;;;;;;;18.67;15.45;;;;;;;14.16;54.25;101531.03;5027356;28;20038;-66
2021/03/31 01:59:44;;;;;;;17.25;14.35;;;;;;;14.17;54.32;101526.69;5026708;28;20044;-64
2021/03/31 02:02:12;;;;;;;21.77;13.75;;;;;;;14.13;54.40;101530.34;5024191;28;20033;-64
2021/03/31 02:04:40;;;;;;;17.35;13.68;;;;;;;14.12;54.31;101526.88;5025366;28;20488;-65
2021/03/31 02:07:07;;;;;;;17.92;15.52;;;;;;;14.16;53.89;101538.06;5025501;28;20120;-64
2021/03/31 02:09:41;;;;;;;18.63;14.55;;;;;;;14.11;53.87;101537.41;5020966;28;20046;-64
2021/03/31 02:12:08;;;;;;;;;;;;;;;14.08;53.32;101530.53;5022251;28;20084;-65
2021/03/31 02:14:41;;;;;;;20.02;13.32;;;;;;;14.14;53.32;101530.28;5008962;28;20015;-64
2021/03/31 02:17:09;;;;;;;19.48;13.48;;;;;;;14.20;52.89;101530.91;5022889;28;20172;-65
2021/03/31 02:19:40;;;;;;;15.60;13.63;;;;;;;14.22;52.60;101531.69;5026425;28;20120;-65
2021/03/31 02:22:08;;;;;;;24.20;14.23;;;;;;;14.27;52.41;101532.34;5022723;28;20145;-65
2021/03/31 02:24:35;;;;;;;19.80;14.25;;;;;;;14.18;53.14;101524.91;5026730;28;20435;-65
2021/03/31 02:27:05;;;;;;;16.58;13.18;;;;;;;13.97;53.06;101529.31;5024915;28;20045;-66
2021/03/31 02:29:32;;;;;;;19.50;13.20;;;;;;;14.05;53.43;101530.66;5023014;28;20579;-65
2021/03/31 02:31:59;;;;;;;19.98;12.73;;;;;;;14.12;53.02;101534.75;5023376;28;20110;-65
2021/03/31 02:34:28;;;;;;;18.23;13.38;;;;;;;14.12;53.12;101537.38;5025477;28;20040;-65
2021/03/31 02:36:56;;;;;;;19.40;14.35;;;;;;;14.01;53.49;101536.09;5024128;28;20034;-65
2021/03/31 02:39:25;;;;;;;18.10;13.52;;;;;;;13.99;54.11;101530.09;5024565;28;20056;-65
2021/03/31 02:41:55;;;;;;;18.40;14.27;;;;;;;13.97;54.42;101530.16;5024334;28;20124;-65
2021/03/31 02:44:22;;;;;;;22.42;13.80;;;;;;;13.94;54.42;101525.03;5023334;28;20397;-65
2021/03/31 02:46:52;;;;;;;23.75;14.68;;;;;;;13.98;54.53;101525.78;5025104;28;20076;-66
2021/03/31 02:49:20;;;;;;;59.65;18.77;;;;;;;13.68;55.28;101525.31;5024394;28;20200;-66
2021/03/31 02:51:48;;;;;;;26.20;17.63;;;;;;;13.66;55.34;101521.91;5030315;28;20041;-65
2021/03/31 02:54:16;;;;;;;27.17;19.05;;;;;;;13.40;56.20;101530.88;5008985;28;20488;-65
2021/03/31 02:56:43;;;;;;;29.02;19.83;;;;;;;13.34;56.06;101527.59;5026473;28;20109;-65
2021/03/31 02:59:11;;;;;;;25.70;19.02;;;;;;;13.55;55.57;101522.38;5022364;28;20037;-65
2021/03/31 03:01:39;;;;;;;26.17;18.27;;;;;;;13.50;55.55;101521.72;5026112;28;20099;-65
2021/03/31 03:04:06;;;;;;;19.10;16.63;;;;;;;13.59;54.87;101519.56;5022617;28;20100;-65
2021/03/31 03:06:32;;;;;;;33.67;18.35;;;;;;;13.53;55.33;101525.06;5025148;28;20123;-65
2021/03/31 03:09:04;;;;;;;22.25;18.17;;;;;;;13.47;55.41;101527.91;5022700;28;20045;-65
2021/03/31 03:11:32;;;;;;;25.52;16.95;;;;;;;13.40;55.52;101528.25;5021875;28;20135;-67
2021/03/31 03:14:00;;;;;;;26.35;17.10;;;;;;;13.54;54.68;101531.16;5022136;28;20053;-67
2021/03/31 03:16:27;;;;;;;27.38;19.80;;;;;;;13.52;54.85;101527.72;5025893;28;20749;-67
2021/03/31 03:18:54;;;;;;;30.45;19.30;;;;;;;13.38;55.67;101525.69;5005046;28;22458;-67
2021/03/31 03:21:21;;;;;;;29.15;21.92;;;;;;;13.42;55.12;101524.63;5023237;28;20049;-65
2021/03/31 03:23:48;;;;;;;26.20;21.58;;;;;;;13.35;55.26;101520.56;5023866;28;20382;-66
2021/03/31 03:26:16;;;;;;;29.20;21.92;;;;;;;13.30;55.47;101514.69;5024234;28;20058;-65
2021/03/31 03:28:45;;;;;;;32.95;23.52;;;;;;;13.33;55.36;101522.41;5023534;28;20107;-66
2021/03/31 03:31:12;;;;;;;24.55;21.08;;;;;;;13.28;55.76;101519.13;5022866;28;20041;-65
2021/03/31 03:33:39;;;;;;;35.08;20.88;;;;;;;13.11;56.12;101515.41;5024549;28;20108;-66
2021/03/31 03:36:07;;;;;;;27.25;20.40;;;;;;;13.20;55.75;101515.94;5023248;28;20216;-65
2021/03/31 03:38:35;;;;;;;26.17;21.13;;;;;;;13.20;56.09;101516.78;5024572;28;20049;-66
2021/03/31 03:41:05;;;;;;;24.60;19.80;;;;;;;13.14;56.34;101522.28;5023322;28;20033;-67
2021/03/31 03:43:32;;;;;;;23.73;18.77;;;;;;;13.21;55.93;101517.63;5023639;28;20049;-67
2021/03/31 03:45:58;;;;;;;28.35;20.02;;;;;;;13.20;56.01;101523.78;5023949;28;20059;-66
2021/03/31 03:48:25;;;;;;;28.00;20.55;;;;;;;13.13;56.46;101515.34;5024354;28;20127;-66
2021/03/31 03:50:52;;;;;;;28.83;20.10;;;;;;;13.15;56.20;101512.66;5025274;28;20056;-67
2021/03/31 03:53:19;;;;;;;23.50;18.60;;;;;;;13.07;56.43;101516.44;5022526;28;20140;-67
2021/03/31 03:55:46;;;;;;;29.15;22.08;;;;;;;13.14;55.99;101517.03;5007076;28;20395;-66
2021/03/31 03:58:12;;;;;;;27.00;19.45;;;;;;;13.15;55.75;101510.03;5025379;28;20033;-66
2021/03/31 04:00:39;;;;;;;27.63;20.67;;;;;;;13.19;55.72;101519.47;5029109;28;20092;-66
2021/03/31 04:03:05;;;;;;;28.85;21.27;;;;;;;13.15;55.58;101518.72;5026981;28;20573;-66
2021/03/31 04:05:32;;;;;;;32.83;20.52;;;;;;;13.26;55.17;101513.09;5030181;28;20129;-66
2021/03/31 04:07:58;;;;;;;29.70;20.77;;;;;;;13.25;55.18;101512.25;5026830;28;20072;-66
2021/03/31 04:10:29;;;;;;;30.33;20.67;;;;;;;13.16;55.75;101514.38;5025103;28;20045;-65
2021/03/31 04:12:59;;;;;;;25.70;20.02;;;;;;;13.06;56.34;101522.59;5029356;28;20128;-65
2021/03/31 04:15:27;;;;;;;27.73;19.13;;;;;;;12.96;56.56;101523.88;5021650;28;20041;-65
2021/03/31 04:17:55;;;;;;;27.85;20.88;;;;;;;13.04;56.37;101516.53;5023664;28;20365;-65
2021/03/31 04:20:26;;;;;;;27.27;21.27;;;;;;;13.06;55.83;101514.75;5022034;28;20555;-65
2021/03/31 04:22:53;;;;;;;26.52;21.23;;;;;;;12.98;56.31;101518.56;5028400;28;20037;-65
2021/03/31 04:25:23;;;;;;;31.88;20.92;;;;;;;13.01;55.94;101514.06;5025410;28;20125;-65
2021/03/31 04:27:51;;;;;;;28.05;20.35;;;;;;;13.10;55.80;101516.31;5024680;28;20042;-65
2021/03/31 04:30:21;;;;;;;28.25;22.67;;;;;;;13.14;55.85;101516.19;5026849;28;20534;-65
2021/03/31 04:32:49;;;;;;;26.30;19.27;;;;;;;12.97;56.38;101520.34;5025647;28;20061;-65
2021/03/31 04:35:20;;;;;;;29.77;21.05;;;;;;;12.93;56.50;101521.34;5028323;28;20053;-66
2021/03/31 04:37:48;;;;;;;25.38;19.05;;;;;;;13.00;56.30;101525.47;5025195;28;20128;-71
2021/03/31 04:40:17;;;;;;;23.85;18.52;;;;;;;12.89;56.81;101522.41;5032071;28;20037;-69
2021/03/31 04:42:44;;;;;;;32.22;19.80;;;;;;;12.94;56.65;101520.44;5034125;28;20049;-69
2021/03/31 04:45:13;;;;;;;37.78;21.63;;;;;;;12.87;56.83;101515.53;5035171;28;20133;-69
2021/03/31 04:47:40;;;;;;;27.30;20.77;;;;;;;12.85;56.88;101523.44;5032356;28;20037;-69
2021/03/31 04:50:09;;;;;;;30.55;19.63;;;;;;;12.88;56.73;101519.84;5027347;28;20044;-69
2021/03/31 04:52:36;;;;;;;31.45;21.10;;;;;;;12.90;56.65;101520.66;5028510;28;20419;-68
2021/03/31 04:55:04;;;;;;;24.60;18.38;;;;;;;12.91;56.88;101517.97;5022221;28;20061;-66
2021/03/31 04:57:30;;;;;;;21.73;17.25;;;;;;;12.81;56.96;101514.00;5027566;28;20041;-67
2021/03/31 04:59:56;;;;;;;23.52;18.02;;;;;;;12.81;57.19;101519.22;5027489;28;20037;-68
2021/03/31 05:02:23;;;;;;;25.10;17.90;;;;;;;12.81;57.06;101519.22;5022680;28;20061;-70
2021/03/31 05:04:49;;;;;;;27.55;18.95;;;;;;;12.77;57.04;101518.50;5024545;28;20042;-69
2021/03/31 05:07:16;;;;;;;28.42;17.98;;;;;;;12.64;57.66;101519.03;5023876;28;20132;-69
2021/03/31 05:09:42;;;;;;;23.50;17.88;;;;;;;12.61;57.45;101519.16;5022497;28;20034;-65
2021/03/31 05:12:09;;;;;;;26.38;19.20;;;;;;;12.58;57.99;101515.75;5028431;28;20044;-69
2021/03/31 05:14:35;;;;;;;27.08;18.17;;;;;;;12.62;58.17;101524.31;5025948;28;20030;-70
2021/03/31 05:17:02;;;;;;;29.90;18.77;;;;;;;12.70;57.79;101516.19;5027577;28;20456;-67
2021/03/31 05:19:28;;;;;;;31.30;18.55;;;;;;;12.76;57.79;101521.19;5034330;28;20393;-72
2021/03/31 05:21:55;;;;;;;30.70;19.75;;;;;;;12.84;57.82;101529.59;5014449;28;20059;-70
2021/03/31 05:24:21;;;;;;;27.10;18.13;;;;;;;13.02;57.35;101518.38;5032672;28;20521;-70
2021/03/31 05:26:48;;;;;;;25.17;20.00;;;;;;;12.99;57.43;101517.66;5031916;28;20048;-70
2021/03/31 05:29:14;;;;;;;30.10;19.65;;;;;;;13.03;57.71;101517.47;5032383;28;20045;-69
2021/03/31 05:31:40;;;;;;;31.75;17.67;;;;;;;13.14;57.07;101517.03;5027635;28;20049;-69
2021/03/31 05:34:07;;;;;;;26.52;19.48;;;;;;;13.29;57.02;101507.75;5032426;28;20029;-69
2021/03/31 05:36:33;;;;;;;28.92;18.45;;;;;;;13.48;56.48;101515.69;5031614;28;20443;-72
2021/03/31 05:39:00;;;;;;;30.40;19.50;;;;;;;13.55;56.44;101507.50;5033499;28;20033;-70
2021/03/31 05:41:26;;;;;;;29.50;19.42;;;;;;;13.86;55.34;101514.91;5032531;28;20037;-70
2021/03/31 05:43:53;;;;;;;27.35;18.00;;;;;;;14.23;54.27;101515.91;5030143;28;20045;-70
2021/03/31 05:46:20;;;;;;;26.85;18.45;;;;;;;14.48;53.58;101520.06;5030810;28;20447;-70
2021/03/31 05:48:47;;;;;;;26.90;17.85;;;;;;;14.72;53.09;101521.56;5028768;28;20042;-71
2021/03/31 05:51:14;;;;;;;30.92;18.65;;;;;;;15.10;52.07;101513.63;5033577;28;20117;-70
2021/03/31 05:53:40;;;;;;;26.27;17.75;;;;;;;15.38;51.49;101518.34;5032460;28;20064;-69
2021/03/31 05:56:08;;;;;;;30.50;19.23;;;;;;;15.51;51.07;101511.56;5031030;28;20053;-70
2021/03/31 05:58:36;;;;;;;27.30;18.80;;;;;;;15.84;49.75;101521.31;5028776;28;20518;-69
2021/03/31 06:01:04;;;;;;;34.65;21.80;;;;;;;15.91;49.27;101517.44;5030995;28;20045;-70
2021/03/31 06:03:32;;;;;;;31.55;21.63;;;;;;;16.27;48.86;101517.28;5029740;28;20126;-68
2021/03/31 06:06:01;;;;;;;32.60;20.40;;;;;;;16.58;48.50;101513.84;5025885;28;20042;-72
2021/03/31 06:08:28;;;;;;;28.00;19.63;;;;;;;16.77;47.83;101508.41;5022429;28;20082;-70
2021/03/31 06:10:59;;;;;;;31.23;21.73;;;;;;;17.08;46.99;101511.97;5029097;28;20037;-71
2021/03/31 06:13:27;;;;;;;36.10;21.90;;;;;;;17.25;46.92;101507.41;5025400;28;20042;-70
2021/03/31 06:15:53;;;;;;;30.20;21.13;;;;;;;17.50;46.10;101514.75;5029911;28;20037;-73
2021/03/31 06:18:20;;;;;;;30.23;22.20;;;;;;;17.88;45.52;101510.78;5027784;28;20132;-70
2021/03/31 06:21:04;;;;;;;29.02;23.30;;;;;;;18.24;44.13;101505.91;5031439;28;20034;-70
2021/03/31 06:26:39;;;;;;;32.13;24.95;;;;;;;18.69;43.22;101503.97;5029500;28;20038;-69
2021/03/31 06:29:07;;;;;;;29.70;24.42;;;;;;;18.91;42.46;101515.78;5030305;28;20065;-70
2021/03/31 06:31:40;;;;;;;29.52;24.80;;;;;;;19.45;41.57;101510.47;5031028;28;20069;-70
2021/03/31 06:34:08;;;;;;;38.85;26.00;;;;;;;19.98;41.18;101513.94;5031021;28;20449;-69
2021/03/31 06:36:36;;;;;;;34.72;26.90;;;;;;;20.29;39.90;101510.81;5030654;28;20048;-68
2021/03/31 06:39:35;;;;;;;31.85;24.92;;;;;;;20.69;39.15;101500.03;5014246;28;20037;-70
2021/03/31 06:42:12;;;;;;;33.55;22.98;;;;;;;21.17;38.69;101500.88;5027592;28;20370;-68
2021/03/31 06:44:54;;;;;;;34.78;25.45;;;;;;;21.44;38.06;101508.59;5027726;28;20046;-70
2021/03/31 06:47:34;;;;;;;34.13;26.35;;;;;;;21.75;37.10;101506.25;5030080;28;20057;-73
2021/03/31 06:50:09;;;;;;;30.50;25.38;;;;;;;21.88;36.63;101500.84;5029714;28;20037;-69
2021/03/31 06:52:54;;;;;;;30.83;23.00;;;;;;;22.03;36.16;101501.47;5029511;28;20503;-69
2021/03/31 06:55:22;;;;;;;25.52;22.20;;;;;;;22.35;35.94;101507.75;5028709;28;20048;-69
2021/03/31 06:57:54;;;;;;;37.28;26.88;;;;;;;22.60;36.30;101509.31;5028661;28;20595;-70
2021/03/31 07:00:27;;;;;;;34.83;28.58;;;;;;;22.03;38.49;101498.81;5027409;28;20132;-71
2021/03/31 07:02:55;;;;;;;32.92;29.38;;;;;;;21.67;39.60;101504.19;5026945;28;20064;-70
2021/03/31 07:05:22;;;;;;;36.30;32.20;;;;;;;20.60;40.97;101506.00;5027403;28;20127;-68
2021/03/31 07:07:48;;;;;;;40.03;28.77;;;;;;;20.88;39.72;101505.69;5029350;28;20111;-68
2021/03/31 07:10:17;;;;;;;40.97;31.50;;;;;;;21.24;40.24;101506.56;5029887;28;20041;-66
2021/03/31 07:12:45;;;;;;;33.42;29.73;;;;;;;20.50;41.44;101510.25;5023846;28;20048;-66
2021/03/31 07:15:21;;;;;;;35.05;29.30;;;;;;;20.44;41.70;101510.69;5024712;28;20099;-62
2021/03/31 07:17:53;;;;;;;37.60;29.17;;;;;;;20.89;41.11;101502.09;5026931;28;20045;-62
2021/03/31 07:20:21;;;;;;;30.92;25.75;;;;;;;21.56;39.73;101500.66;5029678;28;20488;-61
2021/03/31 07:22:48;;;;;;;24.88;22.08;;;;;;;21.53;39.53;101508.88;5010844;28;20128;-64
2021/03/31 07:25:19;;;;;;;24.85;22.25;;;;;;;21.71;39.75;101500.34;5019911;28;20065;-63
2021/03/31 07:27:46;;;;;;;24.98;22.30;;;;;;;21.97;38.90;101503.63;5029386;28;20049;-64
2021/03/31 07:30:18;;;;;;;28.83;21.05;;;;;;;23.65;35.79;101501.53;5023916;28;20547;-64
2021/03/31 07:33:20;;;;;;;27.58;19.25;;;;;;;24.66;34.56;101498.91;5026625;28;20061;-65
2021/03/31 07:35:47;;;;;;;30.15;22.40;;;;;;;23.84;35.44;101501.66;5022741;28;20159;-65
2021/03/31 07:38:16;;;;;;;30.38;23.35;;;;;;;22.91;37.40;101502.38;5020382;28;20033;-66
2021/03/31 07:40:45;;;;;;;29.60;19.80;;;;;;;23.33;36.22;101501.56;5029792;28;20046;-66
2021/03/31 07:43:29;;;;;;;24.92;20.75;;;;;;;24.11;35.03;101503.72;5028154;28;20049;-65
2021/03/31 07:46:01;;;;;;;23.20;18.85;;;;;;;24.41;34.08;101492.25;5029021;28;20057;-62
2021/03/31 07:48:28;;;;;;;25.83;17.45;;;;;;;25.79;32.14;101492.97;5029065;28;20407;-62
2021/03/31 07:50:55;;;;;;;28.75;17.77;;;;;;;26.28;30.92;101499.81;5030067;28;20113;-63
2021/03/31 07:53:23;;;;;;;21.75;18.20;;;;;;;25.92;30.72;101498.00;5027940;28;20041;-63
2021/03/31 07:55:55;;;;;;;23.52;17.42;;;;;;;26.62;30.43;101500.03;5029632;28;20042;-63
2021/03/31 07:58:28;;;;;;;26.50;19.15;;;;;;;26.61;30.48;101501.03;5026247;28;20100;-64
2021/03/31 08:01:00;;;;;;;30.13;18.48;;;;;;;27.32;29.16;101497.53;5029869;28;20083;-62
2021/03/31 08:03:29;;;;;;;24.00;16.63;;;;;;;27.35;28.52;101504.44;5017136;28;20041;-62
2021/03/31 08:06:15;;;;;;;21.40;16.65;;;;;;;26.73;28.38;101504.34;5018961;28;20107;-63
2021/03/31 08:08:44;;;;;;;23.77;16.90;;;;;;;26.93;28.84;101502.38;5017638;28;20065;-63
2021/03/31 08:11:13;;;;;;;19.40;14.98;;;;;;;27.35;28.35;101496.41;5029281;28;20466;-63
2021/03/31 08:13:42;;;;;;;24.33;18.88;;;;;;;26.20;29.90;101497.00;5026060;28;20045;-63
2021/03/31 08:16:17;;;;;;;22.77;17.05;;;;;;;25.89;29.73;101493.78;5028905;28;20042;-65
2021/03/31 08:18:45;;;;;;;26.33;19.00;;;;;;;26.62;29.09;101502.72;5028090;28;20050;-64
2021/03/31 08:21:28;;;;;;;26.15;19.13;;;;;;;26.87;28.53;101498.47;5012266;28;20455;-62
2021/03/31 08:23:57;;;;;;;27.23;19.95;;;;;;;26.71;28.56;101500.16;5027641;28;20057;-62
2021/03/31 08:26:43;;;;;;;35.28;21.75;;;;;;;26.76;28.54;101505.88;5029961;28;20048;-62
2021/03/31 08:29:10;;;;;;;28.50;20.23;;;;;;;26.93;27.44;101505.03;5026895;28;20037;-63
2021/03/31 08:31:41;;;;;;;33.65;21.48;;;;;;;27.30;27.41;101496.88;5029237;28;20093;-62
2021/03/31 08:34:10;;;;;;;25.70;19.17;;;;;;;26.86;27.99;101495.94;5026492;28;20034;-62
2021/03/31 08:36:41;;;;;;;25.48;19.65;;;;;;;26.81;28.18;101507.09;5028615;28;20455;-64
2021/03/31 08:50:33;;;;;;;29.05;20.25;;;;;;;27.71;27.48;101499.03;4914296;29;20421;-68
2021/03/31 08:53:03;;;;;;;24.52;17.40;;;;;;;28.27;27.49;101497.63;4909200;29;20041;-66
2021/03/31 08:55:31;;;;;;;27.77;17.98;;;;;;;28.60;26.02;101493.22;4909607;29;20112;-65
2021/03/31 08:57:58;;;;;;;32.60;19.63;;;;;;;28.56;25.91;101490.03;4904670;29;20108;-64
2021/03/31 09:04:26;;;;;;;26.35;16.75;;;;;;;28.45;26.49;101498.41;4908150;29;20130;-66
2021/03/31 09:07:01;;;;;;;28.63;18.02;;;;;;;28.08;26.83;101491.53;4934642;29;20043;-67
2021/03/31 09:09:34;;;;;;;23.48;18.08;;;;;;;27.64;27.30;101493.41;4921463;29;20403;-69
2021/03/31 09:12:18;;;;;;;29.92;19.25;;;;;;;27.28;27.81;101493.50;4900727;29;20399;-67
2021/03/31 09:14:48;;;;;;;28.48;19.23;;;;;;;26.95;27.46;101495.00;4907306;29;20467;-68
2021/03/31 09:17:22;;;;;;;27.83;17.45;;;;;;;27.15;27.69;101490.38;4907979;29;20055;-67
2021/03/31 09:19:58;;;;;;;28.90;18.05;;;;;;;26.73;28.24;101482.09;4904773;29;20041;-69
2021/03/31 09:22:30;;;;;;;25.65;17.50;;;;;;;26.38;28.72;101500.59;4901508;29;20048;-68
2021/03/31 09:25:13;;;;;;;24.83;17.15;;;;;;;26.05;29.29;101488.66;4924977;29;20044;-67
2021/03/31 09:28:01;;;;;;;27.50;17.67;;;;;;;25.88;30.38;101486.75;4910931;29;20038;-66
2021/03/31 09:30:29;;;;;;;26.30;17.52;;;;;;;25.34;30.75;101488.25;4907328;29;20044;-66
2021/03/31 09:33:06;;;;;;;30.20;17.50;;;;;;;25.04;30.97;101482.09;4907465;29;20451;-67
2021/03/31 09:35:36;;;;;;;35.33;16.20;;;;;;;24.85;31.78;101483.88;4907026;29;20048;-66
2021/03/31 09:38:05;;;;;;;30.02;19.65;;;;;;;24.56;32.02;101472.22;4915119;29;20044;-67
2021/03/31 09:41:04;;;;;;;31.90;20.80;;;;;;;24.33;32.35;101478.72;4902893;29;20051;-68
2021/03/31 09:43:35;;;;;;;34.58;21.67;;;;;;;24.14;32.64;101465.34;4906440;29;20044;-67
2021/03/31 09:46:03;;;;;;;32.95;21.27;;;;;;;23.97;33.41;101465.00;4901695;29;20036;-67
2021/03/31 09:48:30;;;;;;;38.00;21.80;;;;;;;23.35;32.54;101459.72;4909148;29;20103;-66
2021/03/31 09:50:58;;;;;;;32.40;22.85;;;;;;;23.48;32.96;101452.38;4926141;29;20050;-68
2021/03/31 09:53:25;;;;;;;29.77;23.50;;;;;;;23.20;34.37;101456.53;4909026;29;20059;-65
2021/03/31 09:55:53;;;;;;;33.90;23.55;;;;;;;23.10;34.67;101445.81;4919047;29;20032;-66
2021/03/31 09:58:24;;;;;;;28.23;24.00;;;;;;;23.03;35.17;101447.31;4918912;29;20071;-68
2021/03/31 10:00:52;;;;;;;34.00;23.88;;;;;;;23.12;34.50;101443.06;4927192;29;20063;-66
2021/03/31 10:03:52;;;;;;;30.65;24.20;;;;;;;22.99;34.62;101441.41;4921210;29;20048;-67
2021/03/31 10:06:27;;;;;;;35.13;26.33;;;;;;;22.77;35.50;101441.47;4922505;29;20062;-69
2021/03/31 10:08:54;;;;;;;30.27;23.30;;;;;;;22.93;35.45;101435.75;4919275;29;20044;-68
2021/03/31 10:11:31;;;;;;;34.90;24.60;;;;;;;22.61;35.84;101441.03;4919209;29;20126;-69
2021/03/31 10:14:01;;;;;;;34.97;23.88;;;;;;;22.71;35.64;101436.66;4907550;29;20055;-66
2021/03/31 10:16:35;;;;;;;36.38;24.20;;;;;;;22.80;35.35;101435.91;4930624;29;20063;-67
2021/03/31 10:19:04;;;;;;;37.60;28.15;;;;;;;22.81;35.07;101432.28;4916405;29;20051;-67
2021/03/31 10:21:33;;;;;;;38.55;27.05;;;;;;;22.72;35.31;101428.56;4934475;29;20397;-66
2021/03/31 10:24:02;;;;;;;37.05;27.20;;;;;;;22.72;35.30;101431.22;4933663;29;20490;-68
2021/03/31 10:26:49;;;;;;;38.35;26.17;;;;;;;22.82;35.84;101428.63;4931755;29;20123;-67
2021/03/31 10:29:27;;;;;;;35.42;28.65;;;;;;;22.75;36.77;101423.00;4933778;29;20044;-68
2021/03/31 10:32:19;;;;;;;40.63;32.22;;;;;;;22.61;36.67;101419.78;4933798;29;20838;-68
2021/03/31 10:34:53;;;;;;;44.92;28.73;;;;;;;22.68;36.44;101420.97;4933697;29;20075;-68
2021/03/31 10:40:28;;;;;;;39.95;29.17;;;;;;;22.80;35.72;101416.44;4923125;29;20056;-66
2021/03/31 10:54:08;;;;;;;42.70;32.08;;;;;;;22.34;38.16;101407.78;4933169;29;20742;-68
2021/03/31 10:56:39;;;;;;;51.72;32.50;;;;;;;22.16;38.33;101396.00;4932858;29;20739;-67
2021/03/31 10:59:06;;;;;;;42.97;31.58;;;;;;;22.36;38.60;101389.91;4931973;29;20083;-67
2021/03/31 11:01:55;;;;;;;39.67;30.90;;;;;;;22.30;38.79;101390.41;4932579;29;20040;-67
2021/03/31 11:04:46;;;;;;;45.03;31.52;;;;;;;22.41;37.99;101390.38;4932215;29;20051;-66
2021/03/31 11:07:12;;;;;;;38.03;31.60;;;;;;;22.28;37.73;101380.88;4932515;29;20067;-69
2021/03/31 11:09:40;;;;;;;34.88;29.45;;;;;;;22.36;37.94;101386.41;4934384;29;20557;-67
2021/03/31 11:12:07;;;;;;;37.17;28.48;;;;;;;22.48;38.04;101380.94;4934644;29;20051;-67
2021/03/31 11:14:34;;;;;;;39.42;29.48;;;;;;;22.42;37.38;101377.91;4934077;29;20569;-67
2021/03/31 11:17:04;;;;;;;34.33;27.48;;;;;;;22.49;37.43;101373.81;4934102;29;20127;-67
2021/03/31 11:27:46;;;;;;;38.83;27.95;;;;;;;22.20;38.27;101354.94;4932412;29;20379;-67
2021/03/31 11:30:14;;;;;;;32.15;27.23;;;;;;;22.33;37.11;101358.28;4932236;29;20050;-68
2021/03/31 11:32:40;;;;;;;33.88;27.67;;;;;;;22.46;37.25;101356.28;4915987;29;20063;-67
2021/03/31 11:35:07;;;;;;;32.40;27.52;;;;;;;22.35;37.10;101353.69;4931709;29;20047;-66
2021/03/31 11:37:33;;;;;;;34.80;28.63;;;;;;;22.29;37.44;101348.88;4932469;29;20071;-67
2021/03/31 11:40:00;;;;;;;35.88;26.60;;;;;;;22.38;36.63;101345.47;4932095;29;20114;-67
2021/03/31 11:42:26;;;;;;;41.10;28.38;;;;;;;22.45;37.05;101343.16;4933380;29;20122;-66
2021/03/31 11:44:52;;;;;;;35.55;28.05;;;;;;;22.53;36.67;101332.75;4933731;29;20134;-67
2021/03/31 11:47:19;;;;;;;40.67;28.02;;;;;;;22.49;37.27;101331.31;4934061;29;20052;-68
2021/03/31 11:49:45;;;;;;;38.10;27.17;;;;;;;22.34;36.24;101335.22;4932176;29;20099;-66
2021/03/31 11:52:12;;;;;;;34.25;26.58;;;;;;;22.31;35.96;101327.50;4932977;29;20123;-67
2021/03/31 11:54:38;;;;;;;41.53;27.58;;;;;;;22.43;36.81;101319.38;4933264;29;20560;-67
2021/03/31 11:57:05;;;;;;;38.85;28.95;;;;;;;22.48;36.47;101319.00;4930568;29;20058;-67
2021/03/31 11:59:32;;;;;;;37.10;27.00;;;;;;;22.42;37.18;101315.00;4929104;29;20431;-66
2021/03/31 12:01:58;;;;;;;32.75;27.35;;;;;;;22.24;36.62;101313.88;4915801;29;20040;-66
2021/03/31 12:04:25;;;;;;;33.17;27.23;;;;;;;22.31;36.20;101296.47;4933110;29;20051;-67